Time;durP1;ratioP1;P1;durP2;ratioP2;P2;SDS_P1;SDS_P2;PMS_P1;PMS_P2;Temp;Humidity;BMP_temperature;BMP_pressure;BME280_temperature;BME280_humidity;BME280_pressure;Samples;Min_cycle;Max_cycle;Signal;HPM_P1;HPM_P2
2021/09/28 00:00:12;;;;;;;21.83;16.83;;;17.40;86.70;;;;;;5034907;28;20029;-67
2021/09/28 00:02:38;;;;;;;21.40;16.75;;;17.30;86.80;;;;;;5035475;28;20029;-67
2021/09/28 00:05:04;;;;;;;16.92;15.13;;;17.30;87.00;;;;;;5053108;28;20029;-67
2021/09/28 00:07:29;;;;;;;17.25;15.13;;;17.20;86.80;;;;;;5053108;28;20025;-67
2021/09/28 00:09:55;;;;;;;17.15;14.73;;;17.10;87.00;;;;;;5054040;28;20027;-67
2021/09/28 00:12:21;;;;;;;16.52;13.88;;;17.10;87.20;;;;;;5052746;28;20021;-67
2021/09/28 00:14:47;;;;;;;17.02;14.63;;;17.00;87.10;;;;;;5052917;28;20025;-68
2021/09/28 00:17:12;;;;;;;16.50;14.80;;;17.00;87.40;;;;;;5053012;28;20027;-67
2021/09/28 00:19:39;;;;;;;16.33;14.35;;;16.90;87.60;;;;;;5052673;28;20055;-67
2021/09/28 00:22:05;;;;;;;16.83;13.73;;;16.80;87.80;;;;;;5052810;28;20021;-67
2021/09/28 00:24:31;;;;;;;15.73;13.15;;;16.70;87.90;;;;;;5052824;28;20040;-67
2021/09/28 00:26:57;;;;;;;18.33;12.52;;;16.70;87.80;;;;;;5034721;28;20108;-67
2021/09/28 00:29:22;;;;;;;18.27;12.77;;;16.60;87.90;;;;;;5035060;28;20267;-68
2021/09/28 00:31:48;;;;;;;15.25;12.38;;;16.60;87.80;;;;;;5054898;28;20083;-67
2021/09/28 00:34:13;;;;;;;17.83;13.02;;;16.60;87.70;;;;;;5052299;28;20029;-67
2021/09/28 00:36:39;;;;;;;16.63;12.82;;;16.50;87.60;;;;;;5033719;28;20113;-67
2021/09/28 00:39:04;;;;;;;14.02;12.52;;;16.50;87.90;;;;;;5052277;28;20029;-67
2021/09/28 00:41:30;;;;;;;17.05;12.70;;;16.50;88.00;;;;;;5034218;28;20112;-67
2021/09/28 00:43:56;;;;;;;15.32;11.70;;;16.50;87.80;;;;;;5052077;28;20033;-67
2021/09/28 00:46:22;;;;;;;14.98;12.70;;;16.50;87.50;;;;;;5052427;28;20010;-67
2021/09/28 00:48:49;;;;;;;16.70;12.13;;;16.50;87.90;;;;;;5034414;28;20025;-67
2021/09/28 00:51:15;;;;;;;14.60;12.32;;;16.50;87.70;;;;;;5052152;28;20040;-67
2021/09/28 00:53:42;;;;;;;14.02;11.65;;;16.40;87.90;;;;;;5052159;28;20100;-68
2021/09/28 00:56:10;;;;;;;15.68;12.40;;;16.40;88.00;;;;;;5034260;28;20663;-67
2021/09/28 00:58:38;;;;;;;15.02;11.68;;;16.40;88.10;;;;;;5052230;28;20028;-67
2021/09/28 01:01:04;;;;;;;14.88;11.68;;;16.40;88.00;;;;;;5051832;28;20021;-67
2021/09/28 01:03:32;;;;;;;15.00;13.13;;;16.40;88.00;;;;;;5052030;28;20032;-67
2021/09/28 01:05:58;;;;;;;16.05;11.82;;;16.50;88.00;;;;;;5052061;28;20083;-67
2021/09/28 01:08:24;;;;;;;14.98;12.23;;;16.50;87.80;;;;;;5051991;28;20029;-66
2021/09/28 01:10:50;;;;;;;14.80;12.55;;;16.50;87.60;;;;;;5052951;28;20021;-66
2021/09/28 01:13:15;;;;;;;17.58;12.85;;;16.50;87.50;;;;;;5052156;28;20029;-66
2021/09/28 01:16:02;;;;;;;14.68;12.07;;;16.50;87.50;;;;;;5052274;28;20422;-67
2021/09/28 01:18:30;;;;;;;14.18;11.10;;;16.50;87.50;;;;;;5052227;28;20104;-67
2021/09/28 01:20:56;;;;;;;13.18;11.25;;;16.50;87.60;;;;;;5051540;28;20017;-67
2021/09/28 01:23:22;;;;;;;15.10;12.50;;;16.50;87.60;;;;;;5051581;28;20075;-67
2021/09/28 01:25:47;;;;;;;15.95;13.05;;;16.50;87.80;;;;;;5051718;28;20072;-66
2021/09/28 01:28:13;;;;;;;15.43;11.63;;;16.50;87.80;;;;;;5051687;28;20024;-67
2021/09/28 01:30:39;;;;;;;16.17;12.35;;;16.50;87.80;;;;;;5051557;28;20029;-68
2021/09/28 01:33:04;;;;;;;14.18;12.48;;;16.50;87.90;;;;;;5051555;28;20146;-67
2021/09/28 01:35:30;;;;;;;16.10;12.63;;;16.40;88.00;;;;;;5051659;28;20087;-67
2021/09/28 01:37:57;;;;;;;16.60;13.63;;;16.50;88.10;;;;;;5051533;28;20017;-68
2021/09/28 01:40:23;;;;;;;14.90;13.30;;;16.50;87.80;;;;;;5051478;28;20029;-67
2021/09/28 01:42:49;;;;;;;14.75;11.73;;;16.50;87.70;;;;;;5051892;28;20044;-67
2021/09/28 01:45:14;;;;;;;15.13;13.48;;;16.50;87.70;;;;;;5052323;28;20064;-67
2021/09/28 01:47:40;;;;;;;13.18;11.15;;;16.50;87.70;;;;;;5055034;28;20025;-67
2021/09/28 01:50:07;;;;;;;14.73;11.98;;;16.60;87.90;;;;;;5058336;28;20017;-67
2021/09/28 01:52:37;;;;;;;14.45;12.23;;;16.60;88.00;;;;;;5057937;28;20044;-67
2021/09/28 01:55:06;;;;;;;14.38;11.50;;;16.50;87.90;;;;;;5058053;28;20025;-67
2021/09/28 01:57:33;;;;;;;15.43;12.02;;;16.60;88.00;;;;;;5057948;28;20043;-67
2021/09/28 02:00:00;;;;;;;13.18;11.77;;;16.60;88.00;;;;;;5039883;28;20029;-67
2021/09/28 02:02:25;;;;;;;13.18;11.23;;;16.60;88.00;;;;;;5057962;28;20025;-68
2021/09/28 02:04:51;;;;;;;15.48;12.05;;;16.50;88.10;;;;;;5057946;28;20029;-66
2021/09/28 02:07:16;;;;;;;12.30;10.77;;;16.50;88.00;;;;;;5057866;28;20028;-67
2021/09/28 02:09:42;;;;;;;15.23;12.18;;;16.50;88.10;;;;;;5058881;28;20024;-67
2021/09/28 02:12:07;;;;;;;15.50;12.50;;;16.50;88.40;;;;;;5057960;28;20099;-67
2021/09/28 02:14:33;;;;;;;15.63;12.27;;;16.50;87.90;;;;;;5057969;28;20056;-67
2021/09/28 02:16:58;;;;;;;16.08;12.32;;;16.50;88.00;;;;;;5057995;28;20025;-67
2021/09/28 02:19:24;;;;;;;13.27;11.88;;;16.50;88.10;;;;;;5057626;28;20021;-67
2021/09/28 02:21:50;;;;;;;16.95;11.95;;;16.50;88.10;;;;;;5057813;28;20032;-66
2021/09/28 02:24:16;;;;;;;15.10;12.27;;;16.50;88.10;;;;;;5057838;28;20025;-67
2021/09/28 02:26:45;;;;;;;13.30;11.90;;;16.40;88.10;;;;;;5057818;28;20024;-66
2021/09/28 02:29:11;;;;;;;13.88;11.73;;;16.40;88.10;;;;;;5057605;28;20029;-66
2021/09/28 02:31:37;;;;;;;12.65;11.20;;;16.40;88.10;;;;;;5060905;28;20090;-66
2021/09/28 02:34:06;;;;;;;14.57;11.32;;;16.40;88.20;;;;;;5057670;28;20025;-66
2021/09/28 02:36:33;;;;;;;15.10;12.35;;;16.40;88.40;;;;;;5057761;28;20490;-66
2021/09/28 02:38:59;;;;;;;14.57;11.88;;;16.40;88.30;;;;;;5039559;28;20052;-66
2021/09/28 02:41:24;;;;;;;14.60;11.18;;;16.40;88.40;;;;;;5039906;28;20067;-66
2021/09/28 02:43:50;;;;;;;19.45;12.52;;;16.40;88.60;;;;;;5057612;28;20021;-67
2021/09/28 02:46:16;;;;;;;14.65;11.98;;;16.40;88.40;;;;;;5057761;28;20100;-67
2021/09/28 02:48:41;;;;;;;13.23;11.82;;;16.40;88.60;;;;;;5057592;28;20060;-67
2021/09/28 02:51:07;;;;;;;13.25;11.85;;;16.30;88.60;;;;;;5054886;28;20488;-67
2021/09/28 02:53:32;;;;;;;13.57;12.00;;;16.30;88.70;;;;;;5038919;28;20048;-67
2021/09/28 02:55:58;;;;;;;13.32;11.68;;;16.30;88.80;;;;;;5057106;28;20086;-67
2021/09/28 02:58:23;;;;;;;13.27;11.90;;;16.30;88.80;;;;;;5056832;28;20406;-67
2021/09/28 03:00:49;;;;;;;17.13;13.13;;;16.20;89.00;;;;;;5034563;28;20033;-67
2021/09/28 03:03:15;;;;;;;16.35;13.30;;;16.10;89.10;;;;;;5054153;28;20415;-67
2021/09/28 03:05:40;;;;;;;14.63;12.73;;;16.00;89.40;;;;;;5036528;28;20048;-67
2021/09/28 03:08:06;;;;;;;16.30;12.35;;;16.00;89.60;;;;;;5053854;28;20032;-67
2021/09/28 03:10:31;;;;;;;15.95;12.73;;;15.90;89.90;;;;;;5036432;28;20029;-67
2021/09/28 03:12:57;;;;;;;18.48;13.40;;;15.80;90.00;;;;;;5053670;28;20442;-67
2021/09/28 03:15:23;;;;;;;18.85;14.30;;;15.80;90.20;;;;;;5053762;28;20542;-67
2021/09/28 03:17:48;;;;;;;18.73;13.25;;;15.70;90.50;;;;;;5053638;28;20043;-67
2021/09/28 03:20:14;;;;;;;18.65;13.63;;;15.60;90.40;;;;;;5052648;28;20025;-66
2021/09/28 03:22:39;;;;;;;17.27;14.50;;;15.60;90.70;;;;;;5053757;28;20045;-68
2021/09/28 03:25:05;;;;;;;16.60;13.77;;;15.50;90.90;;;;;;5053517;28;20032;-67
2021/09/28 03:27:31;;;;;;;28.48;19.40;;;15.50;90.70;;;;;;5035728;28;20044;-66
2021/09/28 03:29:56;;;;;;;17.20;13.55;;;15.50;90.80;;;;;;5055889;28;20020;-67
2021/09/28 03:32:22;;;;;;;17.85;13.63;;;15.40;90.90;;;;;;5053126;28;20033;-67
2021/09/28 03:34:48;;;;;;;15.48;13.43;;;15.30;90.80;;;;;;5053327;28;20033;-68
2021/09/28 03:37:13;;;;;;;15.95;13.27;;;15.30;91.10;;;;;;5053439;28;20029;-67
2021/09/28 03:39:39;;;;;;;16.88;13.40;;;15.20;91.10;;;;;;5052397;28;20036;-67
2021/09/28 03:42:05;;;;;;;19.83;14.05;;;15.10;91.30;;;;;;5053031;28;20024;-67
2021/09/28 03:44:30;;;;;;;19.15;14.52;;;15.10;91.30;;;;;;5053026;28;20029;-67
2021/09/28 03:46:56;;;;;;;18.15;13.57;;;15.00;91.40;;;;;;5053357;28;20029;-67
2021/09/28 03:49:22;;;;;;;20.60;15.30;;;15.00;91.50;;;;;;5052284;28;20057;-67
2021/09/28 03:51:48;;;;;;;17.23;13.93;;;15.00;91.80;;;;;;5052768;28;20025;-66
2021/09/28 03:54:13;;;;;;;20.55;14.02;;;14.90;91.70;;;;;;5052717;28;20482;-66
2021/09/28 03:56:40;;;;;;;17.63;14.98;;;14.90;91.80;;;;;;5052640;28;20108;-65
2021/09/28 03:59:05;;;;;;;15.50;13.00;;;14.90;91.80;;;;;;5034276;28;20029;-67
2021/09/28 04:01:31;;;;;;;16.92;13.60;;;14.90;91.70;;;;;;5051379;28;20403;-66
2021/09/28 04:03:56;;;;;;;17.08;14.23;;;14.80;91.70;;;;;;5034664;28;20028;-67
2021/09/28 04:06:22;;;;;;;16.85;14.02;;;14.80;91.80;;;;;;5052707;28;20021;-67
2021/09/28 04:08:48;;;;;;;17.15;14.02;;;14.70;91.80;;;;;;5052692;28;20021;-67
2021/09/28 04:11:13;;;;;;;16.35;13.82;;;14.70;92.00;;;;;;5051548;28;20036;-67
2021/09/28 04:13:43;;;;;;;19.58;16.13;;;14.70;92.00;;;;;;5052479;28;20029;-67
2021/09/28 04:16:10;;;;;;;19.02;14.93;;;14.70;92.20;;;;;;5036209;28;20013;-67
2021/09/28 04:18:36;;;;;;;22.60;15.45;;;14.60;92.20;;;;;;5052330;28;20105;-67
2021/09/28 04:21:02;;;;;;;18.80;15.75;;;14.70;92.30;;;;;;5050385;28;20056;-67
2021/09/28 04:23:27;;;;;;;21.60;15.13;;;14.70;92.30;;;;;;5052110;28;20033;-67
2021/09/28 04:25:53;;;;;;;20.92;16.83;;;14.60;92.10;;;;;;5052326;28;20052;-66
2021/09/28 04:28:19;;;;;;;20.80;16.42;;;14.60;92.40;;;;;;5052279;28;20021;-68
2021/09/28 04:33:19;;;;;;;21.73;16.90;;;14.50;92.40;;;;;;5066710;28;20048;-69
2021/09/28 04:35:45;;;;;;;21.88;16.52;;;14.50;92.60;;;;;;5071870;28;20021;-70
2021/09/28 04:38:10;;;;;;;19.67;15.77;;;14.50;92.60;;;;;;5071652;28;20013;-71
2021/09/28 04:40:36;;;;;;;19.83;16.08;;;14.50;92.60;;;;;;5069838;28;20505;-69
2021/09/28 04:43:01;;;;;;;20.88;15.68;;;14.50;92.60;;;;;;5052934;28;20056;-70
2021/09/28 04:45:27;;;;;;;27.00;16.75;;;14.50;92.80;;;;;;5051915;28;20375;-70
2021/09/28 04:47:53;;;;;;;21.38;16.13;;;14.50;92.80;;;;;;5051989;28;20043;-70
2021/09/28 04:50:18;;;;;;;21.05;16.85;;;14.60;93.00;;;;;;5049613;28;20067;-68
2021/09/28 04:52:44;;;;;;;22.95;15.90;;;14.70;93.10;;;;;;5050411;28;20071;-70
2021/09/28 04:55:09;;;;;;;17.70;14.15;;;14.70;93.10;;;;;;5050463;28;20063;-70
2021/09/28 04:57:35;;;;;;;17.50;13.80;;;14.80;93.20;;;;;;5050237;28;20101;-70
2021/09/28 05:00:01;;;;;;;16.63;14.10;;;14.90;93.00;;;;;;5050667;28;20029;-69
2021/09/28 05:02:26;;;;;;;18.35;14.98;;;14.90;92.80;;;;;;5051121;28;20032;-70
2021/09/28 05:04:52;;;;;;;18.00;13.88;;;15.00;92.60;;;;;;5051359;28;20029;-70
2021/09/28 05:07:17;;;;;;;19.52;14.43;;;15.00;92.60;;;;;;5051141;28;20013;-70
2021/09/28 05:09:43;;;;;;;19.23;13.73;;;15.10;92.60;;;;;;5050500;28;20025;-69
2021/09/28 05:12:09;;;;;;;18.70;13.48;;;15.30;92.50;;;;;;5049804;28;20021;-69
2021/09/28 05:14:35;;;;;;;15.88;12.98;;;15.40;92.40;;;;;;5050689;28;20032;-69
2021/09/28 05:17:01;;;;;;;15.45;13.43;;;15.40;91.70;;;;;;5050714;28;20025;-69
2021/09/28 05:19:26;;;;;;;21.40;13.63;;;15.50;91.90;;;;;;5049132;28;20079;-71
2021/09/28 05:21:52;;;;;;;15.98;12.23;;;15.50;91.50;;;;;;5052742;28;20033;-69
2021/09/28 05:24:18;;;;;;;17.13;12.80;;;15.60;91.40;;;;;;5047614;28;20486;-69
2021/09/28 05:26:46;;;;;;;12.93;11.32;;;15.60;91.10;;;;;;5060711;28;20037;-70
2021/09/28 05:29:12;;;;;;;17.20;13.43;;;15.60;90.90;;;;;;5047799;28;20464;-70
2021/09/28 05:31:37;;;;;;;21.08;12.57;;;15.50;90.90;;;;;;5050108;28;20068;-68
2021/09/28 05:34:03;;;;;;;15.77;12.80;;;15.50;90.90;;;;;;5049337;28;20068;-70
2021/09/28 05:36:29;;;;;;;21.42;13.07;;;15.50;90.90;;;;;;5050827;28;20021;-68
2021/09/28 05:38:54;;;;;;;18.20;13.52;;;15.50;90.80;;;;;;5049952;28;20017;-68
2021/09/28 05:41:20;;;;;;;18.23;14.43;;;15.70;90.60;;;;;;5049788;28;20021;-68
2021/09/28 05:43:45;;;;;;;26.80;17.85;;;15.70;90.60;;;;;;5049781;28;20024;-70
2021/09/28 05:46:11;;;;;;;34.22;20.52;;;15.90;90.00;;;;;;5050421;28;20427;-70
2021/09/28 05:48:37;;;;;;;25.55;19.95;;;16.00;89.60;;;;;;5049013;28;20498;-69
2021/09/28 05:51:14;;;;;;;25.02;21.50;;;16.10;89.40;;;;;;5049622;28;20029;-70
2021/09/28 05:53:39;;;;;;;23.73;20.30;;;16.30;89.00;;;;;;5050567;28;20074;-68
2021/09/28 05:56:05;;;;;;;25.17;21.50;;;16.40;88.90;;;;;;5050070;28;20029;-70
2021/09/28 05:58:31;;;;;;;27.08;23.60;;;16.40;88.40;;;;;;5050143;28;20506;-69
2021/09/28 06:00:56;;;;;;;28.83;23.10;;;16.40;88.30;;;;;;5049621;28;20021;-70
2021/09/28 06:03:22;;;;;;;27.77;23.70;;;16.50;88.20;;;;;;5050175;28;20045;-68
2021/09/28 06:05:47;;;;;;;25.08;22.35;;;16.50;87.90;;;;;;5048573;28;20017;-68
2021/09/28 06:08:13;;;;;;;23.00;20.35;;;16.60;87.80;;;;;;5049978;28;20063;-69
2021/09/28 06:10:39;;;;;;;24.73;20.30;;;16.60;87.80;;;;;;5047165;28;20029;-70
2021/09/28 06:13:04;;;;;;;28.02;23.05;;;16.70;87.60;;;;;;5048699;28;20024;-71
2021/09/28 06:15:30;;;;;;;25.10;22.30;;;16.80;87.00;;;;;;5048517;28;20570;-69
2021/09/28 06:17:56;;;;;;;28.02;23.08;;;16.80;87.00;;;;;;5050173;28;20909;-70
2021/09/28 06:20:22;;;;;;;28.38;22.08;;;16.80;86.90;;;;;;5052211;28;20513;-72
2021/09/28 06:22:48;;;;;;;26.40;21.00;;;16.80;86.90;;;;;;5050059;28;20025;-72
2021/09/28 06:25:13;;;;;;;26.30;22.52;;;16.90;86.70;;;;;;5050380;28;20110;-75
2021/09/28 06:27:39;;;;;;;25.10;21.80;;;16.90;86.40;;;;;;5050197;28;20064;-72
2021/09/28 06:30:05;;;;;;;28.02;23.48;;;16.90;86.50;;;;;;5046415;28;20013;-73
2021/09/28 06:32:30;;;;;;;21.33;17.58;;;16.80;86.50;;;;;;5049853;28;20109;-70
2021/09/28 06:34:56;;;;;;;19.55;16.13;;;16.80;87.10;;;;;;5051592;28;20743;-70
2021/09/28 06:37:21;;;;;;;17.80;15.52;;;16.80;86.40;;;;;;5046050;28;20029;-70
2021/09/28 06:39:47;;;;;;;14.20;12.18;;;16.80;86.40;;;;;;5064672;28;20511;-70
2021/09/28 06:42:13;;;;;;;15.45;12.50;;;16.80;86.00;;;;;;5054103;28;20013;-69
2021/09/28 06:44:38;;;;;;;14.45;11.63;;;16.90;85.90;;;;;;5053992;28;20375;-70
2021/09/28 06:47:04;;;;;;;12.63;10.30;;;16.90;85.60;;;;;;5049540;28;20036;-68
2021/09/28 06:49:29;;;;;;;14.23;10.85;;;16.90;85.40;;;;;;5046479;28;20096;-69
2021/09/28 06:51:57;;;;;;;14.13;9.23;;;16.90;85.40;;;;;;5051542;28;20037;-69
2021/09/28 06:54:22;;;;;;;13.38;8.98;;;17.00;85.40;;;;;;5057795;28;20033;-69
2021/09/28 06:56:48;;;;;;;12.68;9.02;;;16.90;84.70;;;;;;5064698;28;20047;-69
2021/09/28 06:59:13;;;;;;;15.10;10.00;;;16.90;84.80;;;;;;5053064;28;20037;-70
2021/09/28 07:01:39;;;;;;;13.38;9.07;;;17.00;85.10;;;;;;5053420;28;20554;-69
2021/09/28 07:04:06;;;;;;;13.75;8.52;;;17.00;84.00;;;;;;5053906;28;20067;-70
2021/09/28 07:06:32;;;;;;;12.25;9.65;;;17.00;83.50;;;;;;5054011;28;20094;-70
2021/09/28 07:08:58;;;;;;;11.20;9.02;;;17.10;83.90;;;;;;5052138;28;20024;-70
2021/09/28 07:11:24;;;;;;;8.55;7.20;;;17.30;82.70;;;;;;5051742;28;20028;-70
2021/09/28 07:13:50;;;;;;;9.10;6.95;;;17.30;83.20;;;;;;5053449;28;20017;-69
2021/09/28 07:16:16;;;;;;;10.52;7.03;;;17.40;82.70;;;;;;5053412;28;20043;-69
2021/09/28 07:18:42;;;;;;;10.60;6.40;;;17.30;81.90;;;;;;5053123;28;20061;-68
2021/09/28 07:21:08;;;;;;;9.30;7.05;;;17.30;81.70;;;;;;5052616;28;20163;-72
2021/09/28 07:23:33;;;;;;;9.70;4.70;;;17.40;83.00;;;;;;5052800;28;21060;-71
2021/09/28 07:26:00;;;;;;;7.97;5.25;;;17.30;81.30;;;;;;5052157;28;20029;-71
2021/09/28 07:28:25;;;;;;;8.55;4.25;;;17.20;81.60;;;;;;5050884;28;20395;-70
2021/09/28 07:30:51;;;;;;;15.85;5.68;;;17.10;81.10;;;;;;5052725;28;20025;-71
2021/09/28 07:33:17;;;;;;;7.80;3.45;;;17.20;81.50;;;;;;5053324;28;20029;-74
2021/09/28 07:35:45;;;;;;;6.60;3.33;;;17.00;79.50;;;;;;5053341;28;20021;-72
2021/09/28 07:38:12;;;;;;;69.55;45.92;;;16.90;80.30;;;;;;5033465;28;20448;-72
2021/09/28 07:40:41;;;;;;;412.15;243.35;;;16.90;81.90;;;;;;5040146;28;20098;-72
2021/09/28 07:43:07;;;;;;;26.88;13.40;;;16.90;81.20;;;;;;5051979;28;20021;-72
2021/09/28 07:45:33;;;;;;;20.77;12.50;;;16.80;80.60;;;;;;5052743;28;20086;-70
2021/09/28 07:47:59;;;;;;;137.45;87.30;;;16.70;80.50;;;;;;5052960;28;20291;-69
2021/09/28 07:50:25;;;;;;;134.13;63.10;;;16.70;81.20;;;;;;5052340;28;20029;-73
2021/09/28 07:52:51;;;;;;;30.25;14.98;;;16.70;80.60;;;;;;5051533;28;20033;-72
2021/09/28 07:55:17;;;;;;;31.23;14.85;;;16.60;80.50;;;;;;5052684;28;20036;-73
2021/09/28 07:57:42;;;;;;;13.10;5.57;;;16.50;80.50;;;;;;5052734;28;20071;-73
2021/09/28 08:00:09;;;;;;;11.27;6.57;;;16.50;80.20;;;;;;5050882;28;20025;-73
2021/09/28 08:02:37;;;;;;;11.40;5.43;;;16.50;79.90;;;;;;5052945;28;20024;-73
2021/09/28 08:05:03;;;;;;;9.43;4.25;;;16.40;79.90;;;;;;5051557;28;20116;-74
2021/09/28 08:07:29;;;;;;;12.23;5.22;;;16.50;80.00;;;;;;5051475;28;20032;-74
2021/09/28 08:09:54;;;;;;;13.60;7.10;;;16.40;79.80;;;;;;5052243;28;20017;-75
2021/09/28 08:12:20;;;;;;;12.18;5.93;;;16.40;80.30;;;;;;5052680;28;20391;-75
2021/09/28 08:14:45;;;;;;;14.20;6.32;;;16.40;80.10;;;;;;5052360;28;20029;-74
2021/09/28 08:17:11;;;;;;;90.93;52.00;;;16.40;79.80;;;;;;5051295;28;20024;-73
2021/09/28 08:19:39;;;;;;;13.95;6.40;;;16.40;80.00;;;;;;5051768;28;20025;-74
2021/09/28 08:22:09;;;;;;;25.30;12.27;;;16.30;79.90;;;;;;5052204;28;20467;-74
2021/09/28 08:24:41;;;;;;;9.63;4.22;;;16.40;80.00;;;;;;5052195;28;20025;-71
2021/09/28 08:29:53;;;;;;;14.48;7.22;;;16.30;80.00;;;;;;5051573;28;20028;-74
2021/09/28 08:32:18;;;;;;;15.75;8.00;;;16.10;80.30;;;;;;5052182;28;20390;-77
2021/09/28 08:34:44;;;;;;;49.58;31.92;;;16.00;81.00;;;;;;5052084;28;20037;-76
2021/09/28 08:37:10;;;;;;;14.88;6.70;;;16.00;80.80;;;;;;5052404;28;20024;-70
2021/09/28 08:39:35;;;;;;;44.58;27.40;;;16.10;81.00;;;;;;5051488;28;20493;-70
2021/09/28 08:42:01;;;;;;;12.35;7.47;;;16.10;81.30;;;;;;5052041;28;20021;-70
2021/09/28 08:44:26;;;;;;;10.77;6.05;;;16.10;81.00;;;;;;5051931;28;20120;-70
2021/09/28 08:46:52;;;;;;;23.30;11.07;;;16.10;81.50;;;;;;5052048;28;20044;-71
2021/09/28 08:49:20;;;;;;;18.67;9.32;;;16.20;81.00;;;;;;5051355;28;20017;-71
2021/09/28 08:51:49;;;;;;;18.05;10.40;;;16.20;80.60;;;;;;5050354;28;20100;-70
2021/09/28 08:54:15;;;;;;;17.00;8.35;;;16.20;80.80;;;;;;5050639;28;20029;-70
2021/09/28 08:56:41;;;;;;;9.32;3.55;;;16.00;80.70;;;;;;5051399;28;20025;-70
2021/09/28 08:59:08;;;;;;;10.60;3.50;;;16.10;80.90;;;;;;5050575;28;20032;-70
2021/09/28 09:01:35;;;;;;;16.05;6.55;;;16.10;80.60;;;;;;5048839;28;20033;-70
2021/09/28 09:04:17;;;;;;;9.80;5.22;;;16.10;80.80;;;;;;5051647;28;20398;-70
2021/09/28 09:06:44;;;;;;;;;;;16.10;80.80;;;;;;5050463;28;20047;-70
2021/09/28 09:09:15;;;;;;;9.55;3.72;;;16.10;80.80;;;;;;5050925;28;20385;-70
2021/09/28 09:11:43;;;;;;;13.48;2.75;;;16.10;81.10;;;;;;5051577;28;20460;-70
2021/09/28 09:14:25;;;;;;;10.00;5.05;;;16.20;81.10;;;;;;5047284;28;20033;-69
2021/09/28 09:16:51;;;;;;;;;;;16.20;80.80;;;;;;5041291;28;20064;-70
2021/09/28 09:19:19;;;;;;;10.05;4.63;;;16.30;81.70;;;;;;5050601;28;19905;-70
2021/09/28 09:21:59;;;;;;;9.85;3.63;;;16.30;81.80;;;;;;5051354;28;20032;-70
2021/09/28 09:24:45;;;;;;;9.13;2.70;;;16.30;82.10;;;;;;5050170;28;20029;-70
2021/09/28 09:27:14;;;;;;;11.73;5.07;;;16.20;82.60;;;;;;5051622;28;20020;-70
2021/09/28 09:29:41;;;;;;;7.60;2.45;;;16.20;82.20;;;;;;5050770;28;20432;-71
2021/09/28 09:32:07;;;;;;;6.95;2.42;;;16.20;82.50;;;;;;5051203;28;20021;-71
2021/09/28 09:34:33;;;;;;;8.38;2.75;;;16.20;82.30;;;;;;5051359;28;20025;-71
2021/09/28 09:37:03;;;;;;;6.90;3.08;;;16.20;82.70;;;;;;5050064;28;20513;-70
2021/09/28 09:39:47;;;;;;;16.42;4.85;;;16.30;82.80;;;;;;5050441;28;20028;-70
2021/09/28 09:42:13;;;;;;;11.60;3.95;;;16.30;81.70;;;;;;5035322;28;20470;-70
2021/09/28 09:44:41;;;;;;;6.00;2.45;;;16.30;81.40;;;;;;5050737;28;20386;-70
2021/09/28 09:47:23;;;;;;;6.30;2.60;;;16.40;81.00;;;;;;5051225;28;20066;-71
2021/09/28 09:49:48;;;;;;;6.97;4.22;;;16.50;81.20;;;;;;5050403;28;20106;-71
2021/09/28 09:52:14;;;;;;;7.70;2.83;;;16.50;80.40;;;;;;5051186;28;20065;-70
2021/09/28 09:54:42;;;;;;;9.57;3.30;;;16.50;80.30;;;;;;5050711;28;20051;-70
2021/09/28 09:57:12;;;;;;;11.95;5.35;;;16.50;80.60;;;;;;5050832;28;20378;-70
2021/09/28 09:59:40;;;;;;;10.18;4.78;;;16.50;81.00;;;;;;5048971;28;20398;-70
2021/09/28 10:02:07;;;;;;;10.18;5.35;;;16.50;80.80;;;;;;5048372;28;20092;-71
2021/09/28 10:04:33;;;;;;;10.27;4.05;;;16.30;81.30;;;;;;5050926;28;20057;-70
2021/09/28 10:07:02;;;;;;;11.77;3.97;;;16.20;81.70;;;;;;5051072;28;20423;-70
2021/09/28 10:09:34;;;;;;;12.48;4.90;;;16.20;82.00;;;;;;5052614;28;20032;-70
2021/09/28 10:12:06;;;;;;;7.25;2.58;;;16.10;82.20;;;;;;5053636;28;20498;-70
2021/09/28 10:14:35;;;;;;;;;;;16.10;82.60;;;;;;5055591;28;20036;-70
2021/09/28 10:17:21;;;;;;;9.18;2.90;;;16.00;82.30;;;;;;5055171;28;19904;-70
2021/09/28 10:19:54;;;;;;;8.43;3.53;;;16.10;82.50;;;;;;5029361;28;20116;-70
2021/09/28 10:22:36;;;;;;;10.10;3.08;;;16.30;83.00;;;;;;5054753;28;20040;-69
2021/09/28 10:25:22;;;;;;;13.95;3.58;;;16.20;83.10;;;;;;5054928;28;20471;-72
2021/09/28 10:27:51;;;;;;;8.07;2.67;;;16.30;83.50;;;;;;5054348;28;20025;-70
2021/09/28 10:30:35;;;;;;;8.80;4.60;;;16.30;84.20;;;;;;5054076;28;20027;-71
2021/09/28 10:33:04;;;;;;;12.15;4.32;;;16.40;83.40;;;;;;5070516;22;20037;-67
2021/09/28 10:35:32;;;;;;;8.77;3.85;;;16.40;83.60;;;;;;5054669;28;20033;-67
2021/09/28 10:38:00;;;;;;;7.72;2.47;;;16.50;84.10;;;;;;5054192;28;20047;-67
2021/09/28 10:40:32;;;;;;;4.45;2.45;;;16.40;83.20;;;;;;5053665;28;20402;-67
2021/09/28 10:43:08;;;;;;;5.20;2.30;;;16.30;83.90;;;;;;5054652;28;20399;-67
2021/09/28 10:45:36;;;;;;;8.23;3.00;;;16.30;84.10;;;;;;5054626;28;20068;-67
2021/09/28 10:48:11;;;;;;;6.45;2.67;;;16.30;84.30;;;;;;5052851;28;20025;-67
2021/09/28 10:50:39;;;;;;;7.72;3.30;;;16.50;84.00;;;;;;5053716;28;20104;-66
2021/09/28 10:53:07;;;;;;;6.78;2.88;;;16.70;83.40;;;;;;5054462;28;20025;-67
2021/09/28 10:55:52;;;;;;;6.93;2.80;;;16.80;82.40;;;;;;5054470;28;20425;-68
2021/09/28 10:58:18;;;;;;;5.57;2.47;;;17.00;81.40;;;;;;5039056;28;20051;-67
2021/09/28 11:00:48;;;;;;;7.13;2.50;;;17.10;80.80;;;;;;5051652;28;20641;-67
2021/09/28 11:03:14;;;;;;;9.07;2.78;;;17.00;79.90;;;;;;5053940;28;20031;-67
2021/09/28 11:05:54;;;;;;;13.68;4.47;;;16.90;79.60;;;;;;5054062;28;20107;-68
2021/09/28 11:08:22;;;;;;;7.72;3.13;;;17.00;79.90;;;;;;5039262;28;20091;-67
2021/09/28 11:10:59;;;;;;;9.35;3.47;;;16.90;80.10;;;;;;5053083;28;20110;-68
2021/09/28 11:13:32;;;;;;;9.07;3.22;;;16.90;80.30;;;;;;5053693;28;20032;-68
2021/09/28 11:15:58;;;;;;;7.95;3.55;;;16.70;80.00;;;;;;5052399;28;20021;-66
2021/09/28 11:18:24;;;;;;;7.40;3.55;;;16.70;80.80;;;;;;5052237;28;20359;-66
2021/09/28 11:20:50;;;;;;;8.40;3.75;;;16.70;81.10;;;;;;5052329;28;20028;-67
2021/09/28 11:23:15;;;;;;;3.95;2.45;;;16.80;81.10;;;;;;5061028;28;20025;-67
2021/09/28 11:25:49;;;;;;;5.15;2.05;;;16.90;81.80;;;;;;5053730;28;20483;-67
2021/09/28 11:28:17;;;;;;;4.90;2.17;;;17.00;81.70;;;;;;5038408;28;20013;-67
2021/09/28 11:31:03;;;;;;;6.80;2.97;;;17.40;81.40;;;;;;5048249;28;20028;-67
2021/09/28 11:33:37;;;;;;;6.38;2.75;;;17.60;81.00;;;;;;5048070;28;20459;-66
2021/09/28 11:36:04;;;;;;;4.35;2.13;;;17.70;79.70;;;;;;5053568;28;20032;-70
2021/09/28 11:38:35;;;;;;;9.13;2.72;;;17.60;78.80;;;;;;5051996;28;20037;-72
2021/09/28 11:41:10;;;;;;;6.55;2.70;;;17.60;78.70;;;;;;5052640;28;20498;-71
2021/09/28 11:43:37;;;;;;;6.70;2.47;;;17.50;78.00;;;;;;5051941;28;20098;-72
2021/09/28 11:46:08;;;;;;;8.40;3.58;;;17.70;77.40;;;;;;5053340;28;20017;-73
2021/09/28 11:48:38;;;;;;;;;;;17.40;78.00;;;;;;5053576;28;20029;-70
2021/09/28 11:51:23;;;;;;;28.42;13.57;;;17.50;78.80;;;;;;5053281;28;20291;-71
2021/09/28 11:53:52;;;;;;;11.45;5.90;;;17.50;77.00;;;;;;5052393;28;20021;-72
2021/09/28 11:56:21;;;;;;;29.83;16.90;;;17.10;78.30;;;;;;5053505;28;20053;-72
2021/09/28 11:58:52;;;;;;;20.23;4.25;;;17.10;79.80;;;;;;5053502;28;20501;-73
2021/09/28 12:01:19;;;;;;;7.32;3.30;;;17.10;78.30;;;;;;5050855;28;20021;-72
2021/09/28 12:04:12;;;;;;;16.92;6.80;;;17.40;78.30;;;;;;5053241;28;20422;-73
2021/09/28 12:07:00;;;;;;;7.70;3.53;;;17.30;78.00;;;;;;5053173;28;20100;-73
2021/09/28 12:09:47;;;;;;;4.53;2.40;;;17.30;79.70;;;;;;5052595;28;20053;-70
2021/09/28 12:12:15;;;;;;;13.20;7.65;;;17.00;81.80;;;;;;5037563;28;20119;-73
2021/09/28 12:14:43;;;;;;;25.27;14.80;;;16.50;83.10;;;;;;5053507;28;20433;-71
2021/09/28 12:17:25;;;;;;;19.17;9.88;;;16.50;84.00;;;;;;5053248;28;20025;-73
2021/09/28 12:19:57;;;;;;;10.13;5.57;;;16.40;83.70;;;;;;5050408;28;20029;-71
2021/09/28 12:22:31;;;;;;;15.57;8.90;;;16.60;84.00;;;;;;5058871;28;20025;-71
2021/09/28 12:24:57;;;;;;;7.70;4.05;;;16.60;82.30;;;;;;5068294;28;20037;-70
2021/09/28 12:27:24;;;;;;;5.95;2.75;;;16.70;82.20;;;;;;5055250;28;20029;-68
2021/09/28 12:29:53;;;;;;;18.42;10.00;;;16.90;81.50;;;;;;5068189;28;20475;-70
2021/09/28 12:32:31;;;;;;;7.88;3.65;;;17.00;81.10;;;;;;5063019;28;20044;-70
2021/09/28 12:35:13;;;;;;;5.63;3.00;;;17.30;80.70;;;;;;5051795;28;20021;-70
2021/09/28 12:37:45;;;;;;;;;;;17.50;79.30;;;;;;5050852;28;20021;-68
2021/09/28 12:40:13;;;;;;;10.15;5.60;;;17.70;78.60;;;;;;5043733;28;19932;-72